Lennon, Michigan
Current Conditions -  °F | °C
As of 4:53 AM on Thursday 29 Jan 2015 (Local Time) from KFNT Reporting Station
Overcast Overcast  
Wind Chill: 20°   Ceiling: 5000
Heat Index: 30°   Visibility: 9mi
Dew Point: 17°   Wind: 13mph
Humidity: 59%   Direction: 160°SSE
Pressure: 29.89"   Gusts: NA
Location:  42.99°N, 83.93°W
Report Text: KFNT 290953Z AUTO 16011KT 9SM SCT045 OVC050 M01/M08 A2989 RMK AO2 SNB40E52 SLP131 P0000 T10111083
Loading
Personal Weather Stations






























Interactive Weather Map New forecast layout! Learn more

10-Day Weather Forecast

Advertisements
Track Severe Weather on mobile